Accueil
METAR-TAF:

METAR-TAF

Aéroports :

Longyearbyen, Norvège

Aéroport de Longyearbyen

latitude: 78-15N, longitude: 015-28E, altitude: 2 m

Observation

Le bulletin a été fait il y a 50 minutes, à 17:50 UTC
Vent 8 kt de nord
Température -5°C
Humidité 63%
Pression 1011 hPa
Visibilité 10 km ou plus
Quelques nuages à une hauteur de 2000 ft
Nuages fragmentés à une hauteur de 3000 ft

METAR: ENSB 231750Z 35008KT 9999 FEW020 BKN030 M05/M11 Q1011 RMK WIND 1400FT 33009KT

Heure: 20:40 (18:40 UTC)

Prévision

Prévision valable du 23 à 18 UTC au 24 à 18 UTC
Vent 8 kt de nord/nord-ouest
Visibilité 10 km ou plus
Nuages épars à une hauteur de 2500 ft

TAF: ENSB 2318/2418 34008KT 9999 SCT025

Observations et prévisions météorologiques de plus de 4000 aéroports (messages METAR et TAF).

Les stations disponibles sont représentées par des disques jaunes et rouges sur la carte.

Passer la souris dessus pour voir le nom de la station.

Cliquer dessus pour voir les observations et prévisions météorologiques.

Pour changer de carte: cliquez sur les boutons verts avec une croix noire pour zoomer, sur le bouton vert avec un tiret pour effectuer un zoom arrière, ou sur les flèches vertes pour les cartes adjacentes.


METAR-TAF: